sensor_id;sensor_type;location;lat;lon;timestamp;pressure;altitude;pressure_sealevel;temperature;humidity
11810;BME280;5962;41.566;23.734;2023-12-20T00:02:07;95878.44;;;0.37;100.00
11810;BME280;5962;41.566;23.734;2023-12-20T00:04:35;95872.56;;;0.43;100.00
11810;BME280;5962;41.566;23.734;2023-12-20T00:07:04;95876.16;;;0.42;100.00
11810;BME280;5962;41.566;23.734;2023-12-20T00:09:32;95868.00;;;0.37;100.00
11810;BME280;5962;41.566;23.734;2023-12-20T00:12:00;95872.56;;;0.35;100.00
11810;BME280;5962;41.566;23.734;2023-12-20T00:14:28;95868.69;;;0.31;100.00
11810;BME280;5962;41.566;23.734;2023-12-20T00:16:56;95873.72;;;0.33;100.00
11810;BME280;5962;41.566;23.734;2023-12-20T00:19:25;95862.66;;;0.31;100.00
11810;BME280;5962;41.566;23.734;2023-12-20T00:21:53;95865.56;;;0.28;100.00
11810;BME280;5962;41.566;23.734;2023-12-20T00:24:21;95857.28;;;0.24;100.00
11810;BME280;5962;41.566;23.734;2023-12-20T00:26:49;95857.59;;;0.21;100.00
11810;BME280;5962;41.566;23.734;2023-12-20T00:29:17;95856.16;;;0.19;100.00
11810;BME280;5962;41.566;23.734;2023-12-20T00:31:45;95855.97;;;0.20;100.00
11810;BME280;5962;41.566;23.734;2023-12-20T00:34:13;95848.19;;;0.12;100.00
11810;BME280;5962;41.566;23.734;2023-12-20T00:36:42;95848.38;;;0.11;100.00
11810;BME280;5962;41.566;23.734;2023-12-20T00:39:10;95849.16;;;0.11;100.00
11810;BME280;5962;41.566;23.734;2023-12-20T00:41:38;95843.81;;;0.13;100.00
11810;BME280;5962;41.566;23.734;2023-12-20T00:44:06;95842.81;;;0.14;100.00
11810;BME280;5962;41.566;23.734;2023-12-20T00:46:34;95841.81;;;0.15;100.00
11810;BME280;5962;41.566;23.734;2023-12-20T00:49:02;95839.22;;;0.15;100.00
11810;BME280;5962;41.566;23.734;2023-12-20T00:51:30;95841.81;;;0.15;100.00
11810;BME280;5962;41.566;23.734;2023-12-20T00:53:59;95837.13;;;0.18;100.00
11810;BME280;5962;41.566;23.734;2023-12-20T00:56:27;95841.03;;;0.14;100.00
11810;BME280;5962;41.566;23.734;2023-12-20T00:58:55;95837.59;;;0.14;100.00
11810;BME280;5962;41.566;23.734;2023-12-20T01:01:23;95841.53;;;0.10;100.00
11810;BME280;5962;41.566;23.734;2023-12-20T01:03:51;95837.28;;;0.09;100.00
11810;BME280;5962;41.566;23.734;2023-12-20T01:06:19;95837.47;;;-0.01;100.00
11810;BME280;5962;41.566;23.734;2023-12-20T01:08:47;95828.69;;;-0.07;100.00
11810;BME280;5962;41.566;23.734;2023-12-20T01:11:17;95829.16;;;-0.12;100.00
11810;BME280;5962;41.566;23.734;2023-12-20T01:13:45;95825.09;;;-0.14;100.00
11810;BME280;5962;41.566;23.734;2023-12-20T01:16:13;95824.78;;;-0.19;100.00
11810;BME280;5962;41.566;23.734;2023-12-20T01:18:41;95812.09;;;-0.22;100.00
11810;BME280;5962;41.566;23.734;2023-12-20T01:21:09;95816.66;;;-0.24;100.00
11810;BME280;5962;41.566;23.734;2023-12-20T01:23:37;95823.00;;;-0.27;100.00
11810;BME280;5962;41.566;23.734;2023-12-20T01:26:05;95816.31;;;-0.29;100.00
11810;BME280;5962;41.566;23.734;2023-12-20T01:28:34;95818.44;;;-0.33;100.00
11810;BME280;5962;41.566;23.734;2023-12-20T01:31:02;95812.09;;;-0.30;100.00
11810;BME280;5962;41.566;23.734;2023-12-20T01:33:30;95806.72;;;-0.37;100.00
11810;BME280;5962;41.566;23.734;2023-12-20T01:35:58;95795.84;;;-0.40;100.00
11810;BME280;5962;41.566;23.734;2023-12-20T01:38:26;95795.66;;;-0.39;100.00
11810;BME280;5962;41.566;23.734;2023-12-20T01:40:54;95799.22;;;-0.40;100.00
11810;BME280;5962;41.566;23.734;2023-12-20T01:43:22;95784.28;;;-0.46;100.00
11810;BME280;5962;41.566;23.734;2023-12-20T01:45:55;95784.78;;;-0.50;100.00
11810;BME280;5962;41.566;23.734;2023-12-20T01:48:24;95787.06;;;-0.55;100.00
11810;BME280;5962;41.566;23.734;2023-12-20T01:50:53;95768.19;;;-0.57;100.00
11810;BME280;5962;41.566;23.734;2023-12-20T01:53:23;95776.16;;;-0.59;100.00
11810;BME280;5962;41.566;23.734;2023-12-20T01:55:54;95769.16;;;-0.58;100.00
11810;BME280;5962;41.566;23.734;2023-12-20T01:58:24;95765.44;;;-0.56;100.00
11810;BME280;5962;41.566;23.734;2023-12-20T02:00:55;95767.69;;;-0.53;100.00
11810;BME280;5962;41.566;23.734;2023-12-20T02:03:23;95763.66;;;-0.47;100.00
11810;BME280;5962;41.566;23.734;2023-12-20T02:05:53;95751.44;;;-0.47;100.00
11810;BME280;5962;41.566;23.734;2023-12-20T02:08:21;95750.66;;;-0.47;100.00
11810;BME280;5962;41.566;23.734;2023-12-20T02:10:49;95749.50;;;-0.45;100.00
11810;BME280;5962;41.566;23.734;2023-12-20T02:13:17;95748.03;;;-0.39;100.00
11810;BME280;5962;41.566;23.734;2023-12-20T02:15:45;95746.06;;;-0.37;100.00
11810;BME280;5962;41.566;23.734;2023-12-20T02:18:15;95750.13;;;-0.35;100.00
11810;BME280;5962;41.566;23.734;2023-12-20T02:20:43;95748.34;;;-0.42;100.00
11810;BME280;5962;41.566;23.734;2023-12-20T02:23:13;95743.78;;;-0.40;100.00
11810;BME280;5962;41.566;23.734;2023-12-20T02:25:40;95747.53;;;-0.43;100.00
11810;BME280;5962;41.566;23.734;2023-12-20T02:28:08;95746.53;;;-0.26;100.00
11810;BME280;5962;41.566;23.734;2023-12-20T02:30:36;95748.50;;;-0.36;100.00
11810;BME280;5962;41.566;23.734;2023-12-20T02:33:07;95732.41;;;-0.55;100.00
11810;BME280;5962;41.566;23.734;2023-12-20T02:35:36;95737.63;;;-0.55;100.00
11810;BME280;5962;41.566;23.734;2023-12-20T02:38:04;95746.91;;;-0.69;100.00
11810;BME280;5962;41.566;23.734;2023-12-20T02:40:33;95741.84;;;-0.86;100.00
11810;BME280;5962;41.566;23.734;2023-12-20T02:43:01;95741.34;;;-0.90;100.00
11810;BME280;5962;41.566;23.734;2023-12-20T02:45:29;95736.31;;;-0.91;100.00
11810;BME280;5962;41.566;23.734;2023-12-20T02:47:57;95729.81;;;-0.95;100.00
11810;BME280;5962;41.566;23.734;2023-12-20T02:50:25;95727.69;;;-0.92;100.00
11810;BME280;5962;41.566;23.734;2023-12-20T02:52:53;95734.69;;;-0.84;100.00
11810;BME280;5962;41.566;23.734;2023-12-20T02:55:21;95733.56;;;-0.90;100.00
11810;BME280;5962;41.566;23.734;2023-12-20T02:57:51;95722.50;;;-0.92;100.00
11810;BME280;5962;41.566;23.734;2023-12-20T03:00:19;95724.28;;;-0.84;100.00
11810;BME280;5962;41.566;23.734;2023-12-20T03:02:47;95732.25;;;-0.86;100.00
11810;BME280;5962;41.566;23.734;2023-12-20T03:05:15;95717.78;;;-0.96;100.00
11810;BME280;5962;41.566;23.734;2023-12-20T03:07:43;95711.78;;;-0.96;100.00
11810;BME280;5962;41.566;23.734;2023-12-20T03:10:11;95714.53;;;-0.98;100.00
11810;BME280;5962;41.566;23.734;2023-12-20T03:12:40;95712.91;;;-0.99;100.00
11810;BME280;5962;41.566;23.734;2023-12-20T03:15:10;95720.41;;;-1.04;100.00
11810;BME280;5962;41.566;23.734;2023-12-20T03:17:38;95718.75;;;-1.05;100.00
11810;BME280;5962;41.566;23.734;2023-12-20T03:20:08;95717.94;;;-1.05;100.00
11810;BME280;5962;41.566;23.734;2023-12-20T03:22:36;95706.25;;;-1.09;100.00
11810;BME280;5962;41.566;23.734;2023-12-20T03:25:04;95722.00;;;-1.11;100.00
11810;BME280;5962;41.566;23.734;2023-12-20T03:27:32;95715.16;;;-1.12;100.00
11810;BME280;5962;41.566;23.734;2023-12-20T03:30:00;95711.59;;;-1.11;100.00
11810;BME280;5962;41.566;23.734;2023-12-20T03:32:29;95709.00;;;-1.11;100.00
11810;BME280;5962;41.566;23.734;2023-12-20T03:34:57;95703.13;;;-1.13;100.00
11810;BME280;5962;41.566;23.734;2023-12-20T03:37:25;95702.97;;;-1.19;100.00
11810;BME280;5962;41.566;23.734;2023-12-20T03:39:53;95712.56;;;-1.20;100.00
11810;BME280;5962;41.566;23.734;2023-12-20T03:42:21;95703.63;;;-1.17;100.00
11810;BME280;5962;41.566;23.734;2023-12-20T03:44:49;95702.34;;;-1.21;100.00
11810;BME280;5962;41.566;23.734;2023-12-20T03:47:17;95702.19;;;-1.20;100.00
11810;BME280;5962;41.566;23.734;2023-12-20T03:49:47;95698.75;;;-1.20;100.00
11810;BME280;5962;41.566;23.734;2023-12-20T03:52:15;95690.47;;;-1.24;100.00
11810;BME280;5962;41.566;23.734;2023-12-20T03:54:43;95699.56;;;-1.28;100.00
11810;BME280;5962;41.566;23.734;2023-12-20T03:57:11;95692.56;;;-1.27;100.00
11810;BME280;5962;41.566;23.734;2023-12-20T03:59:40;95697.94;;;-1.29;100.00
11810;BME280;5962;41.566;23.734;2023-12-20T04:02:08;95692.56;;;-1.27;100.00
11810;BME280;5962;41.566;23.734;2023-12-20T04:04:36;95695.00;;;-1.26;100.00
11810;BME280;5962;41.566;23.734;2023-12-20T04:07:05;95689.53;;;-1.15;100.00
11810;BME280;5962;41.566;23.734;2023-12-20T04:09:33;95686.41;;;-1.18;100.00
11810;BME280;5962;41.566;23.734;2023-12-20T04:12:01;95686.59;;;-1.20;100.00
11810;BME280;5962;41.566;23.734;2023-12-20T04:14:29;95689.50;;;-1.23;100.00
11810;BME280;5962;41.566;23.734;2023-12-20T04:16:57;95682.84;;;-1.17;100.00
11810;BME280;5962;41.566;23.734;2023-12-20T04:19:25;95676.84;;;-1.18;100.00
11810;BME280;5962;41.566;23.734;2023-12-20T04:21:53;95674.38;;;-1.19;100.00
11810;BME280;5962;41.566;23.734;2023-12-20T04:24:22;95675.34;;;-1.20;100.00
11810;BME280;5962;41.566;23.734;2023-12-20T04:26:50;95676.00;;;-1.26;100.00
11810;BME280;5962;41.566;23.734;2023-12-20T04:29:18;95670.50;;;-1.23;100.00
11810;BME280;5962;41.566;23.734;2023-12-20T04:31:46;95669.69;;;-1.32;100.00
11810;BME280;5962;41.566;23.734;2023-12-20T04:34:15;95664.63;;;-1.41;100.00
11810;BME280;5962;41.566;23.734;2023-12-20T04:36:43;95669.81;;;-1.49;100.00
11810;BME280;5962;41.566;23.734;2023-12-20T04:39:11;95676.28;;;-1.61;100.00
11810;BME280;5962;41.566;23.734;2023-12-20T04:41:40;95675.94;;;-1.58;100.00
11810;BME280;5962;41.566;23.734;2023-12-20T04:44:08;95671.59;;;-1.58;100.00
11810;BME280;5962;41.566;23.734;2023-12-20T04:46:37;95674.00;;;-1.64;100.00
11810;BME280;5962;41.566;23.734;2023-12-20T04:49:05;95674.81;;;-1.64;100.00
11810;BME280;5962;41.566;23.734;2023-12-20T04:51:33;95679.56;;;-1.51;100.00
11810;BME280;5962;41.566;23.734;2023-12-20T04:54:01;95661.34;;;-1.59;100.00
11810;BME280;5962;41.566;23.734;2023-12-20T04:56:29;95672.25;;;-1.48;100.00
11810;BME280;5962;41.566;23.734;2023-12-20T04:58:58;95677.78;;;-1.43;100.00
11810;BME280;5962;41.566;23.734;2023-12-20T05:01:26;95671.44;;;-1.40;100.00
11810;BME280;5962;41.566;23.734;2023-12-20T05:03:54;95668.84;;;-1.32;100.00
11810;BME280;5962;41.566;23.734;2023-12-20T05:06:22;95676.97;;;-1.19;100.00
11810;BME280;5962;41.566;23.734;2023-12-20T05:08:51;95677.63;;;-1.17;100.00
11810;BME280;5962;41.566;23.734;2023-12-20T05:11:19;95681.72;;;-1.15;100.00
11810;BME280;5962;41.566;23.734;2023-12-20T05:13:47;95673.59;;;-1.20;100.00
11810;BME280;5962;41.566;23.734;2023-12-20T05:16:17;95666.44;;;-1.18;100.00
11810;BME280;5962;41.566;23.734;2023-12-20T05:18:45;95661.22;;;-1.26;100.00
11810;BME280;5962;41.566;23.734;2023-12-20T05:21:13;95660.09;;;-1.31;100.00
11810;BME280;5962;41.566;23.734;2023-12-20T05:23:41;95647.28;;;-1.41;100.00
11810;BME280;5962;41.566;23.734;2023-12-20T05:26:09;95647.72;;;-1.45;100.00
11810;BME280;5962;41.566;23.734;2023-12-20T05:28:37;95642.88;;;-1.48;100.00
11810;BME280;5962;41.566;23.734;2023-12-20T05:31:05;95651.78;;;-1.59;100.00
11810;BME280;5962;41.566;23.734;2023-12-20T05:33:36;95639.63;;;-1.50;100.00
11810;BME280;5962;41.566;23.734;2023-12-20T05:36:04;95639.63;;;-1.50;100.00
11810;BME280;5962;41.566;23.734;2023-12-20T05:38:32;95646.44;;;-1.49;100.00
11810;BME280;5962;41.566;23.734;2023-12-20T05:41:00;95637.34;;;-1.45;100.00
11810;BME280;5962;41.566;23.734;2023-12-20T05:43:28;95635.88;;;-1.48;100.00
11810;BME280;5962;41.566;23.734;2023-12-20T05:45:56;95633.47;;;-1.49;100.00
11810;BME280;5962;41.566;23.734;2023-12-20T05:48:24;95634.59;;;-1.44;100.00
11810;BME280;5962;41.566;23.734;2023-12-20T05:50:54;95631.16;;;-1.44;100.00
11810;BME280;5962;41.566;23.734;2023-12-20T05:53:22;95634.09;;;-1.47;100.00
11810;BME280;5962;41.566;23.734;2023-12-20T05:55:50;95642.03;;;-1.49;100.00
11810;BME280;5962;41.566;23.734;2023-12-20T05:58:18;95632.78;;;-1.51;100.00
11810;BME280;5962;41.566;23.734;2023-12-20T06:00:46;95636.06;;;-1.49;100.00
11810;BME280;5962;41.566;23.734;2023-12-20T06:03:15;95641.69;;;-1.54;100.00
11810;BME280;5962;41.566;23.734;2023-12-20T06:05:43;95643.84;;;-1.49;100.00
11810;BME280;5962;41.566;23.734;2023-12-20T06:08:12;95633.94;;;-1.38;100.00
11810;BME280;5962;41.566;23.734;2023-12-20T06:10:41;95642.41;;;-1.28;100.00
11810;BME280;5962;41.566;23.734;2023-12-20T06:13:09;95643.69;;;-1.24;100.00
11810;BME280;5962;41.566;23.734;2023-12-20T06:15:38;95642.09;;;-1.17;100.00
11810;BME280;5962;41.566;23.734;2023-12-20T06:18:06;95642.09;;;-1.01;100.00
11810;BME280;5962;41.566;23.734;2023-12-20T06:20:35;95638.81;;;-0.95;100.00
11810;BME280;5962;41.566;23.734;2023-12-20T06:23:03;95648.56;;;-0.89;100.00
11810;BME280;5962;41.566;23.734;2023-12-20T06:25:33;95640.94;;;-0.83;100.00
11810;BME280;5962;41.566;23.734;2023-12-20T06:28:01;95640.09;;;-0.83;100.00
11810;BME280;5962;41.566;23.734;2023-12-20T06:30:29;95640.91;;;-0.75;100.00
11810;BME280;5962;41.566;23.734;2023-12-20T06:32:59;95638.78;;;-0.71;100.00
11810;BME280;5962;41.566;23.734;2023-12-20T06:35:27;95622.06;;;-0.77;100.00
11810;BME280;5962;41.566;23.734;2023-12-20T06:37:55;95634.06;;;-0.60;100.00
11810;BME280;5962;41.566;23.734;2023-12-20T06:40:23;95624.59;;;-0.45;100.00
11810;BME280;5962;41.566;23.734;2023-12-20T06:42:52;95627.34;;;-0.38;100.00
11810;BME280;5962;41.566;23.734;2023-12-20T06:45:24;95632.50;;;-0.22;100.00
11810;BME280;5962;41.566;23.734;2023-12-20T06:47:52;95623.16;;;-0.09;100.00
11810;BME280;5962;41.566;23.734;2023-12-20T06:50:21;95621.97;;;0.01;100.00
11810;BME280;5962;41.566;23.734;2023-12-20T06:52:49;95620.50;;;0.07;100.00
11810;BME280;5962;41.566;23.734;2023-12-20T06:55:17;95619.50;;;0.08;100.00
11810;BME280;5962;41.566;23.734;2023-12-20T06:57:45;95615.53;;;0.20;100.00
11810;BME280;5962;41.566;23.734;2023-12-20T07:00:15;95611.41;;;0.33;100.00
11810;BME280;5962;41.566;23.734;2023-12-20T07:02:44;95608.91;;;0.40;100.00
11810;BME280;5962;41.566;23.734;2023-12-20T07:05:16;95607.34;;;0.53;100.00
11810;BME280;5962;41.566;23.734;2023-12-20T07:07:46;95604.19;;;0.66;100.00
11810;BME280;5962;41.566;23.734;2023-12-20T07:10:14;95605.41;;;0.78;100.00
11810;BME280;5962;41.566;23.734;2023-12-20T07:12:42;95597.34;;;0.87;100.00
11810;BME280;5962;41.566;23.734;2023-12-20T07:15:11;95601.16;;;0.99;100.00
11810;BME280;5962;41.566;23.734;2023-12-20T07:17:40;95595.66;;;1.08;100.00
11810;BME280;5962;41.566;23.734;2023-12-20T07:20:10;95587.34;;;1.13;100.00
11810;BME280;5962;41.566;23.734;2023-12-20T07:22:38;95579.50;;;1.13;100.00
11810;BME280;5962;41.566;23.734;2023-12-20T07:25:07;95586.44;;;1.20;100.00
11810;BME280;5962;41.566;23.734;2023-12-20T07:27:35;95584.97;;;1.18;100.00
11810;BME280;5962;41.566;23.734;2023-12-20T07:30:03;95576.00;;;1.20;100.00
11810;BME280;5962;41.566;23.734;2023-12-20T07:32:31;95573.91;;;1.16;100.00
11810;BME280;5962;41.566;23.734;2023-12-20T07:35:01;95578.25;;;1.23;100.00
11810;BME280;5962;41.566;23.734;2023-12-20T07:37:29;95573.81;;;1.09;100.00
11810;BME280;5962;41.566;23.734;2023-12-20T07:39:57;95577.34;;;1.16;100.00
11810;BME280;5962;41.566;23.734;2023-12-20T07:42:25;95564.13;;;1.18;100.00
11810;BME280;5962;41.566;23.734;2023-12-20T07:44:53;95561.25;;;1.13;100.00
11810;BME280;5962;41.566;23.734;2023-12-20T07:47:22;95564.00;;;1.11;100.00
11810;BME280;5962;41.566;23.734;2023-12-20T07:49:50;95561.94;;;1.07;100.00
11810;BME280;5962;41.566;23.734;2023-12-20T07:52:19;95565.97;;;1.09;100.00
11810;BME280;5962;41.566;23.734;2023-12-20T07:54:48;95564.53;;;1.07;100.00
11810;BME280;5962;41.566;23.734;2023-12-20T07:57:16;95558.16;;;0.95;100.00
11810;BME280;5962;41.566;23.734;2023-12-20T07:59:44;95558.38;;;0.86;100.00
11810;BME280;5962;41.566;23.734;2023-12-20T08:02:12;95553.25;;;0.78;100.00
11810;BME280;5962;41.566;23.734;2023-12-20T08:04:40;95554.28;;;0.69;100.00
11810;BME280;5962;41.566;23.734;2023-12-20T08:07:08;95559.34;;;0.70;100.00
11810;BME280;5962;41.566;23.734;2023-12-20T08:09:38;95554.94;;;0.71;100.00
11810;BME280;5962;41.566;23.734;2023-12-20T08:12:06;95552.31;;;0.71;100.00
11810;BME280;5962;41.566;23.734;2023-12-20T08:14:34;95550.06;;;0.68;100.00
11810;BME280;5962;41.566;23.734;2023-12-20T08:17:02;95556.88;;;0.69;100.00
11810;BME280;5962;41.566;23.734;2023-12-20T08:19:30;95553.50;;;0.83;100.00
11810;BME280;5962;41.566;23.734;2023-12-20T08:21:59;95550.06;;;1.04;100.00
11810;BME280;5962;41.566;23.734;2023-12-20T08:24:27;95549.81;;;1.14;100.00
11810;BME280;5962;41.566;23.734;2023-12-20T08:26:56;95545.25;;;1.30;100.00
11810;BME280;5962;41.566;23.734;2023-12-20T08:29:24;95548.84;;;1.44;100.00
11810;BME280;5962;41.566;23.734;2023-12-20T08:31:53;95543.72;;;1.36;100.00
11810;BME280;5962;41.566;23.734;2023-12-20T08:34:21;95542.88;;;1.35;100.00
11810;BME280;5962;41.566;23.734;2023-12-20T08:36:50;95538.13;;;1.39;100.00
11810;BME280;5962;41.566;23.734;2023-12-20T08:39:18;95529.84;;;1.50;100.00
11810;BME280;5962;41.566;23.734;2023-12-20T08:41:46;95518.59;;;1.49;100.00
11810;BME280;5962;41.566;23.734;2023-12-20T08:44:16;95518.97;;;1.46;100.00
11810;BME280;5962;41.566;23.734;2023-12-20T08:46:44;95512.28;;;1.58;100.00
11810;BME280;5962;41.566;23.734;2023-12-20T08:49:12;95513.91;;;1.59;100.00
11810;BME280;5962;41.566;23.734;2023-12-20T08:51:40;95501.75;;;1.66;100.00
11810;BME280;5962;41.566;23.734;2023-12-20T08:54:09;95500.03;;;1.59;100.00
11810;BME280;5962;41.566;23.734;2023-12-20T08:56:37;95488.97;;;1.57;100.00
11810;BME280;5962;41.566;23.734;2023-12-20T08:59:05;95478.16;;;1.60;100.00
11810;BME280;5962;41.566;23.734;2023-12-20T09:01:34;95479.78;;;1.61;100.00
11810;BME280;5962;41.566;23.734;2023-12-20T09:04:02;95479.44;;;1.64;100.00
11810;BME280;5962;41.566;23.734;2023-12-20T09:06:30;95471.03;;;1.68;100.00
11810;BME280;5962;41.566;23.734;2023-12-20T09:08:58;95462.06;;;1.56;100.00
11810;BME280;5962;41.566;23.734;2023-12-20T09:11:26;95458.09;;;1.60;100.00
11810;BME280;5962;41.566;23.734;2023-12-20T09:13:54;95455.22;;;1.55;100.00
11810;BME280;5962;41.566;23.734;2023-12-20T09:16:22;95451.69;;;1.63;100.00
11810;BME280;5962;41.566;23.734;2023-12-20T09:18:51;95444.38;;;1.73;100.00
11810;BME280;5962;41.566;23.734;2023-12-20T09:21:19;95444.44;;;1.79;100.00
11810;BME280;5962;41.566;23.734;2023-12-20T09:23:48;95420.84;;;1.87;100.00
11810;BME280;5962;41.566;23.734;2023-12-20T09:26:16;95426.72;;;1.95;100.00
11810;BME280;5962;41.566;23.734;2023-12-20T09:28:45;95413.25;;;2.13;100.00
11810;BME280;5962;41.566;23.734;2023-12-20T09:31:13;95408.69;;;2.21;100.00
11810;BME280;5962;41.566;23.734;2023-12-20T09:33:41;95402.63;;;2.42;100.00
11810;BME280;5962;41.566;23.734;2023-12-20T09:36:10;95405.88;;;2.44;100.00
11810;BME280;5962;41.566;23.734;2023-12-20T09:38:39;95397.59;;;2.40;100.00
11810;BME280;5962;41.566;23.734;2023-12-20T09:41:09;95393.38;;;2.39;100.00
11810;BME280;5962;41.566;23.734;2023-12-20T09:43:37;95391.38;;;2.41;100.00
11810;BME280;5962;41.566;23.734;2023-12-20T09:46:06;95387.81;;;2.49;100.00
11810;BME280;5962;41.566;23.734;2023-12-20T09:48:36;95374.53;;;2.50;100.00
11810;BME280;5962;41.566;23.734;2023-12-20T09:51:05;95367.19;;;2.60;100.00
11810;BME280;5962;41.566;23.734;2023-12-20T09:53:35;95364.41;;;2.68;100.00
11810;BME280;5962;41.566;23.734;2023-12-20T09:56:05;95356.41;;;2.76;100.00
11810;BME280;5962;41.566;23.734;2023-12-20T09:58:36;95350.03;;;2.85;100.00
11810;BME280;5962;41.566;23.734;2023-12-20T10:01:05;95342.19;;;2.85;100.00
11810;BME280;5962;41.566;23.734;2023-12-20T10:03:34;95332.75;;;2.90;100.00
11810;BME280;5962;41.566;23.734;2023-12-20T10:06:03;95330.53;;;2.87;100.00
11810;BME280;5962;41.566;23.734;2023-12-20T10:08:31;95324.72;;;2.92;100.00
11810;BME280;5962;41.566;23.734;2023-12-20T10:11:01;95305.22;;;2.94;100.00
11810;BME280;5962;41.566;23.734;2023-12-20T10:13:30;95300.41;;;3.04;100.00
11810;BME280;5962;41.566;23.734;2023-12-20T10:15:59;95283.13;;;3.10;100.00
11810;BME280;5962;41.566;23.734;2023-12-20T10:18:29;95288.41;;;3.29;100.00
11810;BME280;5962;41.566;23.734;2023-12-20T10:20:57;95276.16;;;3.43;100.00
11810;BME280;5962;41.566;23.734;2023-12-20T10:23:25;95280.22;;;3.58;100.00
11810;BME280;5962;41.566;23.734;2023-12-20T10:25:56;95279.44;;;3.77;100.00
11810;BME280;5962;41.566;23.734;2023-12-20T10:28:26;95259.69;;;3.94;100.00
11810;BME280;5962;41.566;23.734;2023-12-20T10:30:55;95257.28;;;4.12;100.00
11810;BME280;5962;41.566;23.734;2023-12-20T10:33:24;95248.56;;;4.24;100.00
11810;BME280;5962;41.566;23.734;2023-12-20T10:35:52;95236.44;;;4.36;100.00
11810;BME280;5962;41.566;23.734;2023-12-20T10:38:20;95235.63;;;4.49;100.00
11810;BME280;5962;41.566;23.734;2023-12-20T10:40:49;95227.53;;;4.57;100.00
11810;BME280;5962;41.566;23.734;2023-12-20T10:43:22;95225.50;;;4.59;100.00
11810;BME280;5962;41.566;23.734;2023-12-20T10:45:54;95221.81;;;4.72;100.00
11810;BME280;5962;41.566;23.734;2023-12-20T10:48:22;95212.53;;;4.76;100.00
11810;BME280;5962;41.566;23.734;2023-12-20T10:50:56;95220.19;;;4.78;100.00
11810;BME280;5962;41.566;23.734;2023-12-20T10:53:25;95202.25;;;4.75;100.00
11810;BME280;5962;41.566;23.734;2023-12-20T10:55:55;95196.31;;;4.92;100.00
11810;BME280;5962;41.566;23.734;2023-12-20T10:58:24;95199.69;;;4.99;100.00
11810;BME280;5962;41.566;23.734;2023-12-20T11:00:59;95192.81;;;5.05;100.00
11810;BME280;5962;41.566;23.734;2023-12-20T11:03:30;95183.88;;;5.12;100.00
11810;BME280;5962;41.566;23.734;2023-12-20T11:06:05;95180.78;;;5.22;100.00
11810;BME280;5962;41.566;23.734;2023-12-20T11:08:39;95175.72;;;5.27;100.00
11810;BME280;5962;41.566;23.734;2023-12-20T11:11:26;95169.59;;;5.33;100.00
11810;BME280;5962;41.566;23.734;2023-12-20T11:13:58;95171.81;;;5.36;100.00
11810;BME280;5962;41.566;23.734;2023-12-20T11:16:31;95160.28;;;5.37;100.00
11810;BME280;5962;41.566;23.734;2023-12-20T11:19:04;95164.16;;;5.34;100.00
11810;BME280;5962;41.566;23.734;2023-12-20T11:21:33;95160.53;;;5.35;100.00
11810;BME280;5962;41.566;23.734;2023-12-20T11:24:02;95155.41;;;5.40;100.00
11810;BME280;5962;41.566;23.734;2023-12-20T11:26:31;95146.41;;;5.54;100.00
11810;BME280;5962;41.566;23.734;2023-12-20T11:29:29;95136.56;;;5.74;100.00
11810;BME280;5962;41.566;23.734;2023-12-20T11:31:59;95129.25;;;5.82;100.00
11810;BME280;5962;41.566;23.734;2023-12-20T11:34:28;95131.75;;;5.95;100.00
11810;BME280;5962;41.566;23.734;2023-12-20T11:37:00;95114.06;;;6.02;100.00
11810;BME280;5962;41.566;23.734;2023-12-20T11:39:28;95117.44;;;6.09;100.00
11810;BME280;5962;41.566;23.734;2023-12-20T11:41:56;95095.66;;;6.02;100.00
11810;BME280;5962;41.566;23.734;2023-12-20T11:44:25;95109.78;;;6.26;100.00
11810;BME280;5962;41.566;23.734;2023-12-20T11:46:55;95106.84;;;6.34;100.00
11810;BME280;5962;41.566;23.734;2023-12-20T11:49:25;95105.75;;;6.41;100.00
11810;BME280;5962;41.566;23.734;2023-12-20T11:51:53;95102.44;;;6.46;100.00
11810;BME280;5962;41.566;23.734;2023-12-20T11:54:21;95100.97;;;6.50;100.00
11810;BME280;5962;41.566;23.734;2023-12-20T11:56:49;95097.00;;;6.58;100.00
11810;BME280;5962;41.566;23.734;2023-12-20T11:59:17;95087.31;;;6.59;100.00
11810;BME280;5962;41.566;23.734;2023-12-20T12:01:48;95087.13;;;6.72;100.00
11810;BME280;5962;41.566;23.734;2023-12-20T12:04:18;95081.94;;;6.83;100.00
11810;BME280;5962;41.566;23.734;2023-12-20T12:06:47;95080.03;;;7.02;100.00
11810;BME280;5962;41.566;23.734;2023-12-20T12:09:16;95074.66;;;7.08;100.00
11810;BME280;5962;41.566;23.734;2023-12-20T12:11:44;95068.19;;;7.22;100.00
11810;BME280;5962;41.566;23.734;2023-12-20T12:14:13;95071.50;;;7.29;100.00
11810;BME280;5962;41.566;23.734;2023-12-20T12:16:44;95036.09;;;7.14;100.00
11810;BME280;5962;41.566;23.734;2023-12-20T12:19:20;95063.03;;;7.39;100.00
11810;BME280;5962;41.566;23.734;2023-12-20T12:21:50;95061.19;;;7.39;100.00
11810;BME280;5962;41.566;23.734;2023-12-20T12:24:20;95051.47;;;7.40;100.00
11810;BME280;5962;41.566;23.734;2023-12-20T12:26:51;95050.91;;;7.38;100.00
11810;BME280;5962;41.566;23.734;2023-12-20T12:29:19;95045.88;;;7.36;100.00
11810;BME280;5962;41.566;23.734;2023-12-20T12:31:47;95042.41;;;7.36;100.00
11810;BME280;5962;41.566;23.734;2023-12-20T12:34:15;95050.31;;;7.36;100.00
11810;BME280;5962;41.566;23.734;2023-12-20T12:36:44;95050.91;;;7.38;100.00
11810;BME280;5962;41.566;23.734;2023-12-20T12:39:15;95047.00;;;7.40;100.00
11810;BME280;5962;41.566;23.734;2023-12-20T12:41:43;95031.31;;;7.45;100.00
11810;BME280;5962;41.566;23.734;2023-12-20T12:44:11;95033.25;;;7.49;100.00
11810;BME280;5962;41.566;23.734;2023-12-20T12:46:40;95025.94;;;7.51;100.00
11810;BME280;5962;41.566;23.734;2023-12-20T12:49:08;95024.91;;;7.52;100.00
11810;BME280;5962;41.566;23.734;2023-12-20T12:51:36;95019.38;;;7.54;100.00
11810;BME280;5962;41.566;23.734;2023-12-20T12:54:04;95025.25;;;7.56;100.00
11810;BME280;5962;41.566;23.734;2023-12-20T12:56:33;95014.44;;;7.57;100.00
11810;BME280;5962;41.566;23.734;2023-12-20T12:59:01;95023.41;;;7.56;100.00
11810;BME280;5962;41.566;23.734;2023-12-20T13:01:30;95016.28;;;7.57;100.00
11810;BME280;5962;41.566;23.734;2023-12-20T13:03:58;95012.31;;;7.54;100.00